Time;durP1;ratioP1;P1;durP2;ratioP2;P2;SDS_P1;SDS_P2;PMS_P1;PMS_P2;Temp;Humidity;BMP_temperature;BMP_pressure;BME280_temperature;BME280_humidity;BME280_pressure;Samples;Min_cycle;Max_cycle;Signal;HPM_P1;HPM_P2
2021/01/01 00:00:16;;;;;;;21.83;15.50;;;;;;;-1.23;75.69;94356.09;6052900;23;20443;-73
2021/01/01 00:02:43;;;;;;;27.33;13.40;;;;;;;-1.19;75.30;94355.69;6054735;23;20714;-73
2021/01/01 00:05:15;;;;;;;19.20;17.17;;;;;;;-1.19;74.74;94349.66;6052244;23;20942;-73
2021/01/01 00:07:43;;;;;;;15.67;12.70;;;;;;;-1.21;74.93;94352.41;6051994;23;21014;-73
2021/01/01 00:10:13;;;;;;;14.93;13.47;;;;;;;-1.18;74.30;94353.91;6051902;23;20446;-73
2021/01/01 00:12:40;;;;;;;17.63;15.70;;;;;;;-1.29;75.14;94369.59;6075603;23;20442;-73
2021/01/01 00:15:08;;;;;;;14.83;12.87;;;;;;;-1.42;75.65;94361.38;6050857;23;20450;-73
2021/01/01 00:17:35;;;;;;;12.40;10.73;;;;;;;-1.55;76.69;94366.88;6050100;23;20698;-74
2021/01/01 00:20:03;;;;;;;15.50;12.30;;;;;;;-1.80;78.11;94361.38;6050593;23;20442;-73
2021/01/01 00:22:30;;;;;;;12.83;11.53;;;;;;;-1.85;78.72;94353.19;6052128;23;20534;-73
2021/01/01 00:24:57;;;;;;;8.77;8.00;;;;;;;-1.91;79.02;94364.13;6074701;23;20503;-73
2021/01/01 00:27:28;;;;;;;9.03;8.23;;;;;;;-1.95;79.20;94364.53;6053289;23;20660;-73
2021/01/01 00:29:55;;;;;;;8.77;8.07;;;;;;;-1.96;79.49;94360.31;6070832;23;20714;-73
2021/01/01 00:32:22;;;;;;;11.20;8.90;;;;;;;-1.76;79.08;94348.97;6053591;23;20462;-73
2021/01/01 00:34:48;;;;;;;12.10;10.03;;;;;;;-1.78;78.41;94354.28;6052376;23;20756;-73
2021/01/01 00:37:16;;;;;;;11.40;10.23;;;;;;;-1.77;78.50;94349.91;6052258;23;20435;-73
2021/01/01 00:39:42;;;;;;;15.10;12.80;;;;;;;-1.71;78.61;94351.94;6049967;23;20446;-73
2021/01/01 00:42:10;;;;;;;11.43;9.00;;;;;;;-1.56;77.39;94349.69;6051082;23;20438;-73
2021/01/01 00:44:38;;;;;;;8.97;8.07;;;;;;;-1.58;76.17;94351.63;6044618;23;20446;-73
2021/01/01 00:47:04;;;;;;;11.00;9.93;;;;;;;-1.55;75.93;94353.94;6052179;23;20718;-73
2021/01/01 00:49:31;;;;;;;8.27;7.47;;;;;;;-1.46;75.42;94363.44;6052203;23;21122;-74
2021/01/01 00:52:02;;;;;;;7.70;6.73;;;;;;;-1.41;74.68;94363.00;6053466;23;20491;-73
2021/01/01 00:54:29;;;;;;;7.07;5.63;;;;;;;-1.45;74.78;94355.53;6052249;23;20468;-72
2021/01/01 00:56:56;;;;;;;6.07;5.47;;;;;;;-1.44;74.67;94357.16;6052091;23;20443;-73
2021/01/01 00:59:22;;;;;;;9.73;6.80;;;;;;;-1.40;74.45;94362.03;6050890;23;20440;-73
2021/01/01 01:01:50;;;;;;;8.20;7.07;;;;;;;-1.37;74.46;94361.72;6045904;23;20439;-73
2021/01/01 01:04:18;;;;;;;6.97;6.27;;;;;;;-1.41;74.56;94365.56;6073350;23;20771;-73
2021/01/01 01:06:44;;;;;;;7.77;6.67;;;;;;;-1.40;74.24;94367.19;6051392;23;20497;-73
2021/01/01 01:09:11;;;;;;;6.27;5.77;;;;;;;-1.42;74.62;94375.13;6049308;23;20552;-73
2021/01/01 01:11:38;;;;;;;10.17;8.63;;;;;;;-1.42;74.67;94369.13;6050900;23;20517;-73
2021/01/01 01:14:05;;;;;;;6.80;6.20;;;;;;;-1.47;74.64;94372.94;6071225;23;20450;-74
2021/01/01 01:16:33;;;;;;;6.67;6.10;;;;;;;-1.55;75.81;94370.28;6073351;23;20447;-73
2021/01/01 01:19:01;;;;;;;6.47;5.70;;;;;;;-1.59;76.00;94379.25;6026115;23;20439;-73
2021/01/01 01:21:28;;;;;;;8.40;7.53;;;;;;;-1.72;77.94;94373.59;6048314;23;20714;-73
2021/01/01 01:23:56;;;;;;;12.47;8.73;;;;;;;-1.77;78.10;94386.13;6050596;23;20445;-73
2021/01/01 01:26:23;;;;;;;9.10;8.27;;;;;;;-1.83;78.63;94384.94;6037972;23;20678;-74
2021/01/01 01:28:50;;;;;;;5.77;5.30;;;;;;;-1.85;78.78;94378.25;6051554;23;20436;-73
2021/01/01 01:31:18;;;;;;;8.80;7.87;;;;;;;-1.89;78.94;94374.31;6051114;23;20504;-73
2021/01/01 01:33:46;;;;;;;7.73;7.13;;;;;;;-1.95;79.16;94380.84;6071934;23;20437;-73
2021/01/01 01:36:14;;;;;;;8.30;7.63;;;;;;;-1.99;78.84;94381.28;6049873;23;20768;-73
2021/01/01 01:38:41;;;;;;;9.90;9.03;;;;;;;-2.03;79.29;94375.56;6049206;23;20733;-73
2021/01/01 01:41:08;;;;;;;7.47;6.67;;;;;;;-2.05;79.70;94370.53;6041690;23;20435;-74
2021/01/01 01:43:35;;;;;;;8.70;7.23;;;;;;;-2.05;79.89;94362.78;6047335;23;20448;-73
2021/01/01 01:46:03;;;;;;;8.93;7.47;;;;;;;-2.18;80.65;94371.81;6047313;23;20648;-73
2021/01/01 01:48:32;;;;;;;7.10;6.20;;;;;;;-2.18;80.54;94366.63;6049599;23;20706;-73
2021/01/01 01:51:04;;;;;;;9.37;6.90;;;;;;;-2.22;80.27;94378.19;6048955;23;20446;-73
2021/01/01 01:53:37;;;;;;;7.53;6.53;;;;;;;-2.21;80.18;94384.97;6045953;23;20539;-73
2021/01/01 01:56:08;;;;;;;7.60;6.80;;;;;;;-2.23;80.30;94379.94;6047012;23;20885;-74
2021/01/01 01:58:36;;;;;;;8.23;7.53;;;;;;;-2.20;79.91;94376.25;6073473;23;20449;-74
2021/01/01 02:01:04;;;;;;;8.50;6.47;;;;;;;-2.17;79.38;94384.56;6100764;23;20430;-71
2021/01/01 02:03:32;;;;;;;6.67;6.07;;;;;;;-2.18;79.74;94382.13;6084313;23;20464;-71
2021/01/01 02:06:00;;;;;;;7.27;6.47;;;;;;;-2.18;79.74;94387.31;6086852;23;20430;-76
2021/01/01 02:08:27;;;;;;;8.47;7.00;;;;;;;-2.21;79.81;94383.19;6086799;23;20442;-72
2021/01/01 02:10:57;;;;;;;6.20;5.70;;;;;;;-2.22;79.80;94380.75;6088020;23;20461;-71
2021/01/01 02:13:25;;;;;;;9.03;7.80;;;;;;;-2.21;79.64;94378.03;6086798;23;20940;-71
2021/01/01 02:15:52;;;;;;;7.23;6.57;;;;;;;-2.24;80.22;94378.31;6086908;23;20421;-70
2021/01/01 02:18:36;;;;;;;7.77;6.67;;;;;;;-2.25;80.04;94381.88;6087569;23;20433;-71
2021/01/01 02:21:04;;;;;;;6.57;5.90;;;;;;;-2.28;79.91;94384.72;6086081;23;20494;-71
2021/01/01 02:23:33;;;;;;;6.17;5.67;;;;;;;-2.29;79.95;94390.81;6085693;23;20445;-73
2021/01/01 02:26:00;;;;;;;6.67;6.07;;;;;;;-2.28;80.18;94392.47;6086179;23;20438;-71
2021/01/01 02:28:27;;;;;;;6.17;5.57;;;;;;;-2.26;80.08;94390.56;6087503;23;20512;-71
2021/01/01 02:30:54;;;;;;;7.23;6.40;;;;;;;-2.27;80.49;94391.53;6086797;23;20968;-70
2021/01/01 02:33:21;;;;;;;7.97;6.50;;;;;;;-2.27;80.37;94381.19;6085820;23;20437;-71
2021/01/01 02:35:48;;;;;;;7.63;5.87;;;;;;;-2.26;80.69;94375.06;6086590;23;20442;-71
2021/01/01 02:38:15;;;;;;;7.80;7.03;;;;;;;-2.25;80.91;94376.69;6086725;23;20438;-71
2021/01/01 02:40:43;;;;;;;12.20;9.03;;;;;;;-2.21;81.12;94377.22;6086835;23;20477;-71
2021/01/01 02:43:10;;;;;;;8.90;7.93;;;;;;;-2.21;81.74;94383.19;6085883;23;20442;-71
2021/01/01 02:45:37;;;;;;;8.53;6.97;;;;;;;-2.21;82.26;94382.38;6086830;23;20497;-71
2021/01/01 02:48:12;;;;;;;7.77;7.17;;;;;;;-2.16;82.30;94381.03;6085651;23;20441;-71
2021/01/01 02:50:39;;;;;;;9.13;8.23;;;;;;;-2.33;82.94;94384.31;6084154;23;20532;-71
2021/01/01 02:53:06;;;;;;;11.77;8.87;;;;;;;-2.38;83.16;94386.47;6085331;23;20480;-71
2021/01/01 02:55:34;;;;;;;9.10;8.30;;;;;;;-2.31;82.78;94393.56;6087346;23;20434;-71
2021/01/01 02:58:02;;;;;;;8.17;7.37;;;;;;;-2.32;82.94;94391.09;6087271;23;20504;-71
2021/01/01 03:00:32;;;;;;;9.97;8.33;;;;;;;-2.31;82.85;94388.38;6085909;23;20489;-71
2021/01/01 03:02:59;;;;;;;7.00;6.40;;;;;;;-2.28;82.89;94382.16;6086079;23;20890;-70
2021/01/01 03:05:26;;;;;;;8.30;7.47;;;;;;;-2.19;82.29;94378.75;6086362;23;20438;-70
2021/01/01 03:07:53;;;;;;;8.37;6.83;;;;;;;-2.14;81.45;94388.66;6087567;23;21071;-70
2021/01/01 03:10:20;;;;;;;6.10;5.50;;;;;;;-2.14;80.87;94381.72;6086144;23;20464;-70
2021/01/01 03:12:47;;;;;;;8.37;7.57;;;;;;;-2.16;80.21;94386.19;6087461;23;20433;-71
2021/01/01 03:15:15;;;;;;;8.07;7.27;;;;;;;-2.23;81.23;94387.69;6086138;23;20505;-71
2021/01/01 03:17:42;;;;;;;7.67;6.87;;;;;;;-2.23;81.55;94392.88;6087065;23;20445;-71
2021/01/01 03:20:10;;;;;;;8.07;7.37;;;;;;;-2.34;82.71;94393.03;6086046;23;20434;-71
2021/01/01 03:22:37;;;;;;;6.47;5.50;;;;;;;-2.32;83.23;94391.09;6087090;23;20480;-71
2021/01/01 03:25:05;;;;;;;9.00;7.07;;;;;;;-2.40;83.53;94388.38;6085873;23;20472;-71
2021/01/01 03:27:33;;;;;;;7.13;6.57;;;;;;;-2.40;83.74;94385.81;6085954;23;20476;-71
2021/01/01 03:30:00;;;;;;;8.67;7.87;;;;;;;-2.39;84.11;94390.00;6085925;23;20437;-71
2021/01/01 03:32:28;;;;;;;6.77;6.10;;;;;;;-2.35;83.68;94375.88;6087261;23;20501;-71
2021/01/01 03:34:55;;;;;;;6.90;6.10;;;;;;;-2.29;83.92;94372.75;6088262;23;20454;-71
2021/01/01 03:37:22;;;;;;;9.50;8.63;;;;;;;-2.27;84.02;94385.53;6089274;23;20434;-71
2021/01/01 03:39:48;;;;;;;8.03;7.33;;;;;;;-2.23;83.73;94390.28;6088847;23;20442;-71
2021/01/01 03:42:15;;;;;;;7.40;6.47;;;;;;;-2.26;84.32;94395.75;6086440;23;20466;-70
2021/01/01 03:44:42;;;;;;;7.23;6.27;;;;;;;-2.10;82.84;94390.84;6087784;23;20501;-71
2021/01/01 03:47:09;;;;;;;6.53;5.67;;;;;;;-2.12;82.82;94395.28;6088477;23;20438;-70
2021/01/01 03:49:37;;;;;;;8.37;7.57;;;;;;;-1.89;82.26;94402.75;6086981;23;20430;-70
2021/01/01 03:52:04;;;;;;;7.33;6.63;;;;;;;-1.95;81.62;94408.47;6089004;23;20996;-70
2021/01/01 03:54:30;;;;;;;6.57;5.90;;;;;;;-1.93;81.24;94401.38;6088497;23;20460;-70
2021/01/01 03:56:57;;;;;;;7.97;6.30;;;;;;;-1.99;81.28;94412.31;6089530;23;20433;-70
2021/01/01 03:59:24;;;;;;;6.63;5.83;;;;;;;-2.01;81.46;94410.69;6086852;23;20984;-71
2021/01/01 04:01:51;;;;;;;7.57;6.80;;;;;;;-2.01;81.47;94404.69;6088769;23;20440;-71
2021/01/01 04:04:17;;;;;;;6.10;5.63;;;;;;;-1.98;81.12;94403.59;6086570;23;20438;-71
2021/01/01 04:06:45;;;;;;;6.90;6.27;;;;;;;-1.99;81.15;94407.94;6088928;23;20438;-70
2021/01/01 04:09:12;;;;;;;6.27;5.67;;;;;;;-1.99;80.52;94409.72;6088731;23;20446;-70
2021/01/01 04:11:39;;;;;;;11.23;8.17;;;;;;;-1.95;80.07;94403.31;6088192;23;20470;-70
2021/01/01 04:14:07;;;;;;;7.47;5.23;;;;;;;-1.94;80.21;94389.44;6087950;23;20489;-71
2021/01/01 04:16:34;;;;;;;6.83;6.23;;;;;;;-1.95;80.43;94392.97;6088924;23;20438;-71
2021/01/01 04:19:01;;;;;;;6.60;6.00;;;;;;;-1.92;80.71;94397.84;6088276;23;20449;-71
2021/01/01 04:21:27;;;;;;;8.30;6.90;;;;;;;-1.81;79.64;94402.88;6088269;23;20926;-71
2021/01/01 04:23:55;;;;;;;7.40;6.70;;;;;;;-1.85;78.94;94404.09;6088421;23;20496;-71
2021/01/01 04:26:23;;;;;;;6.40;5.80;;;;;;;-1.88;78.79;94404.38;6088937;23;20440;-71
2021/01/01 04:28:50;;;;;;;8.93;7.47;;;;;;;-1.92;78.97;94400.44;6088116;23;20438;-70
2021/01/01 04:31:18;;;;;;;6.97;6.30;;;;;;;-1.91;79.29;94402.91;6087924;23;20500;-71
2021/01/01 04:33:45;;;;;;;8.83;6.73;;;;;;;-1.89;79.22;94407.94;6088429;23;20433;-70
2021/01/01 04:36:12;;;;;;;5.80;5.33;;;;;;;-1.89;77.97;94397.59;6086156;23;20509;-70
2021/01/01 04:38:39;;;;;;;6.93;6.30;;;;;;;-1.91;78.23;94389.16;6088233;23;20437;-71
2021/01/01 04:41:09;;;;;;;8.70;6.90;;;;;;;-1.91;78.57;94389.16;6088345;23;20425;-70
2021/01/01 04:43:37;;;;;;;7.03;6.33;;;;;;;-1.93;78.49;94371.19;6086587;23;20494;-71
2021/01/01 04:46:04;;;;;;;6.83;6.13;;;;;;;-1.90;78.59;94385.63;6088489;23;20438;-71
2021/01/01 04:48:31;;;;;;;7.67;7.07;;;;;;;-1.90;79.01;94385.63;6088654;23;20800;-71
2021/01/01 04:50:59;;;;;;;8.87;5.60;;;;;;;-1.91;78.89;94387.41;6086012;23;20445;-70
2021/01/01 04:53:29;;;;;;;7.97;7.00;;;;;;;-1.91;78.65;94394.34;6088248;23;20498;-71
2021/01/01 04:55:56;;;;;;;7.87;5.97;;;;;;;-1.87;78.47;94398.25;6086095;23;20438;-71
2021/01/01 04:58:25;;;;;;;8.10;6.27;;;;;;;-1.81;77.69;94410.63;6087775;23;20463;-71
2021/01/01 05:00:52;;;;;;;7.20;6.10;;;;;;;-1.84;77.94;94400.56;6087517;23;21171;-70
2021/01/01 05:03:19;;;;;;;8.47;6.93;;;;;;;-1.84;77.96;94414.28;6088356;23;20886;-70
2021/01/01 05:05:49;;;;;;;7.20;6.33;;;;;;;-1.83;78.13;94407.34;6088004;23;20202;-71
2021/01/01 05:08:16;;;;;;;6.70;6.20;;;;;;;-1.82;78.21;94403.84;6087492;23;21155;-70
2021/01/01 05:10:43;;;;;;;8.27;6.90;;;;;;;-1.79;78.34;94394.03;6086408;23;20442;-71
2021/01/01 05:13:11;;;;;;;8.93;7.10;;;;;;;-1.75;78.14;94399.72;6087421;23;20458;-71
2021/01/01 05:15:39;;;;;;;6.63;5.33;;;;;;;-1.75;78.11;94399.72;6088093;23;20438;-71
2021/01/01 05:18:16;;;;;;;7.40;6.67;;;;;;;-1.79;78.26;94404.38;6086293;23;20214;-71
2021/01/01 05:20:44;;;;;;;7.20;6.47;;;;;;;-1.79;78.27;94406.13;6084723;23;20445;-70
2021/01/01 05:23:22;;;;;;;7.87;7.10;;;;;;;-1.75;79.08;94404.88;6086625;23;20441;-70
2021/01/01 05:26:05;;;;;;;6.93;5.67;;;;;;;-1.72;78.97;94402.84;6086886;23;20442;-71
2021/01/01 05:28:45;;;;;;;5.63;5.20;;;;;;;-1.77;78.82;94393.88;6086175;23;20457;-70
2021/01/01 05:31:13;;;;;;;5.80;5.30;;;;;;;-1.70;78.68;94399.31;6087355;23;20504;-71
2021/01/01 05:33:41;;;;;;;5.93;5.20;;;;;;;-1.72;79.36;94404.63;6087104;23;20430;-70
2021/01/01 05:36:09;;;;;;;6.37;5.77;;;;;;;-1.72;79.55;94408.03;6087139;23;20445;-70
2021/01/01 05:38:37;;;;;;;5.93;5.40;;;;;;;-1.72;79.46;94409.81;6087025;23;20476;-70
2021/01/01 05:41:04;;;;;;;6.33;5.63;;;;;;;-1.80;79.56;94422.59;6088316;23;20438;-70
2021/01/01 05:43:31;;;;;;;5.30;4.87;;;;;;;-1.83;80.12;94422.88;6085131;23;20458;-70
2021/01/01 05:46:07;;;;;;;9.23;8.23;;;;;;;-1.84;79.79;94431.59;6086558;23;20434;-70
2021/01/01 05:48:36;;;;;;;10.37;9.27;;;;;;;-1.86;79.65;94429.13;6087941;23;20532;-70
2021/01/01 05:51:05;;;;;;;13.27;12.03;;;;;;;-1.91;79.63;94436.50;6087190;23;20489;-70
2021/01/01 05:53:33;;;;;;;11.47;10.30;;;;;;;-1.96;79.82;94435.28;6088116;23;20430;-70
2021/01/01 05:56:07;;;;;;;7.43;6.77;;;;;;;-2.01;80.04;94436.53;6087382;23;20508;-70
2021/01/01 05:58:34;;;;;;;7.83;6.50;;;;;;;-2.03;80.43;94428.06;6086958;23;20437;-70
2021/01/01 06:01:03;;;;;;;10.83;9.77;;;;;;;-2.08;80.67;94434.63;6087492;23;20909;-70
2021/01/01 06:03:33;;;;;;;9.03;8.30;;;;;;;-2.10;80.71;94444.28;6085752;23;20457;-70
2021/01/01 06:06:04;;;;;;;5.97;5.03;;;;;;;-2.14;81.21;94446.31;6087198;23;20430;-70
2021/01/01 06:08:32;;;;;;;6.13;4.87;;;;;;;-2.17;81.48;94451.75;6086800;23;20434;-70
2021/01/01 06:11:00;;;;;;;7.57;6.83;;;;;;;-2.28;82.49;94446.75;6086650;23;20446;-70
2021/01/01 06:13:31;;;;;;;5.40;4.90;;;;;;;-2.33;82.69;94457.47;6086754;23;20867;-70
2021/01/01 06:15:59;;;;;;;10.37;7.63;;;;;;;-2.36;83.09;94456.94;6087359;23;20445;-70
2021/01/01 06:18:28;;;;;;;8.37;7.00;;;;;;;-2.36;82.98;94470.66;6086474;23;20438;-70
2021/01/01 06:20:59;;;;;;;6.87;6.17;;;;;;;-2.33;83.64;94482.47;6086853;23;21797;-70
2021/01/01 06:23:34;;;;;;;8.23;7.43;;;;;;;-2.42;83.35;94475.53;6086987;23;20438;-70
2021/01/01 06:26:03;;;;;;;6.77;5.33;;;;;;;-2.43;83.34;94476.50;6082918;23;20754;-71
2021/01/01 06:28:33;;;;;;;7.83;5.80;;;;;;;-2.46;83.13;94487.09;6084924;23;20461;-70
2021/01/01 06:31:00;;;;;;;9.07;6.10;;;;;;;-2.44;83.15;94490.38;6086874;23;21234;-70
2021/01/01 06:33:31;;;;;;;5.77;5.20;;;;;;;-2.44;83.88;94485.19;6085094;23;20434;-71
2021/01/01 06:35:57;;;;;;;6.13;5.63;;;;;;;-2.37;83.06;94487.13;6086856;23;20464;-70
2021/01/01 06:38:38;;;;;;;5.70;5.17;;;;;;;-2.23;81.98;94482.50;6085466;23;20765;-70
2021/01/01 06:41:12;;;;;;;9.83;4.93;;;;;;;-2.22;81.01;94484.94;6085103;23;20433;-70
2021/01/01 06:43:48;;;;;;;5.83;5.33;;;;;;;-2.12;80.52;94485.75;6082676;23;20894;-70
2021/01/01 06:46:15;;;;;;;8.27;5.60;;;;;;;-2.13;80.46;94484.13;6087367;23;20438;-68
2021/01/01 06:48:42;;;;;;;6.53;5.27;;;;;;;-2.15;80.74;94480.88;6086699;23;20994;-68
2021/01/01 06:51:14;;;;;;;6.53;5.93;;;;;;;-2.15;80.54;94480.88;6085153;23;20484;-68
2021/01/01 06:53:43;;;;;;;7.70;6.83;;;;;;;-2.16;81.26;94478.41;6084146;23;20441;-68
2021/01/01 06:56:11;;;;;;;10.43;7.80;;;;;;;-2.19;81.30;94481.28;6086834;23;20977;-68
2021/01/01 06:58:39;;;;;;;9.20;8.30;;;;;;;-2.18;81.07;94486.31;6085342;23;20472;-68
2021/01/01 07:01:15;;;;;;;8.53;7.63;;;;;;;-2.20;81.14;94501.13;6086721;23;20438;-68
2021/01/01 07:03:42;;;;;;;11.07;6.27;;;;;;;-2.16;80.86;94494.75;6083308;23;20434;-68
2021/01/01 07:06:38;;;;;;;8.23;6.37;;;;;;;-2.14;80.77;94500.59;6086804;23;20512;-68
2021/01/01 07:09:13;;;;;;;6.90;5.80;;;;;;;-2.08;81.75;94504.41;6088862;23;20464;-68
2021/01/01 07:11:41;;;;;;;6.23;5.63;;;;;;;-1.98;82.46;94517.34;6089058;23;20496;-68
2021/01/01 07:14:10;;;;;;;9.57;6.90;;;;;;;-2.06;81.97;94512.84;6090042;23;20818;-68
2021/01/01 07:16:40;;;;;;;5.57;5.17;;;;;;;-2.10;82.68;94504.56;6090374;23;20441;-68
2021/01/01 07:19:08;;;;;;;5.03;4.57;;;;;;;-2.16;83.02;94514.59;6087420;23;20968;-69
2021/01/01 07:21:35;;;;;;;5.47;5.00;;;;;;;-2.17;83.25;94516.38;6089930;23;20438;-68
2021/01/01 07:24:02;;;;;;;5.90;5.03;;;;;;;-2.17;83.28;94528.47;6090450;23;20989;-68
2021/01/01 07:26:30;;;;;;;6.43;5.97;;;;;;;-2.21;83.69;94522.75;6088896;23;21776;-68
2021/01/01 07:29:00;;;;;;;7.10;5.53;;;;;;;-2.16;84.32;94528.34;6089839;23;20536;-69
2021/01/01 07:31:28;;;;;;;5.40;4.90;;;;;;;-2.16;84.23;94530.91;6089073;23;20521;-68
2021/01/01 07:34:06;;;;;;;4.20;3.83;;;;;;;-2.17;84.28;94524.13;6087893;23;20437;-68
2021/01/01 07:36:34;;;;;;;5.07;4.57;;;;;;;-2.12;84.09;94527.09;6090559;23;20429;-68
2021/01/01 07:39:04;;;;;;;5.73;5.03;;;;;;;-2.06;84.38;94529.16;6089861;23;21093;-68
2021/01/01 07:41:32;;;;;;;5.80;4.77;;;;;;;-2.03;84.17;94528.88;6086829;23;20488;-68
2021/01/01 07:43:59;;;;;;;7.60;6.90;;;;;;;-1.97;83.63;94529.31;6088110;23;20445;-68
2021/01/01 07:46:29;;;;;;;7.17;6.50;;;;;;;-1.88;83.47;94528.50;6088898;23;20442;-68
2021/01/01 07:48:56;;;;;;;6.20;5.57;;;;;;;-1.80;83.58;94520.88;6081443;23;20449;-68
2021/01/01 07:51:23;;;;;;;7.87;6.00;;;;;;;-1.73;83.20;94527.13;6088463;23;20449;-68
2021/01/01 07:53:58;;;;;;;6.53;5.97;;;;;;;-1.58;82.41;94520.56;6089248;23;20868;-69
2021/01/01 07:56:25;;;;;;;6.20;5.63;;;;;;;-1.54;81.96;94532.28;6090408;23;21072;-68
2021/01/01 07:58:54;;;;;;;5.83;4.60;;;;;;;-1.41;81.96;94531.16;6079246;23;20489;-72
2021/01/01 08:01:22;;;;;;;6.07;5.53;;;;;;;-1.32;81.12;94530.34;6083604;23;20444;-72
2021/01/01 08:03:50;;;;;;;4.50;4.07;;;;;;;-1.31;80.96;94543.13;6082181;23;20774;-71
2021/01/01 08:06:18;;;;;;;4.07;3.77;;;;;;;-1.29;80.72;94548.16;6081898;23;20451;-72
2021/01/01 08:08:46;;;;;;;6.53;6.00;;;;;;;-1.29;81.10;94540.41;6081854;23;20518;-71
2021/01/01 08:11:13;;;;;;;4.90;4.40;;;;;;;-1.25;81.25;94547.75;6078705;23;20442;-71
2021/01/01 08:13:40;;;;;;;6.63;4.97;;;;;;;-1.20;81.30;94547.31;6082342;23;20785;-72
2021/01/01 08:16:13;;;;;;;7.07;6.40;;;;;;;-1.14;81.18;94554.53;6080634;23;20441;-72
2021/01/01 08:18:40;;;;;;;4.77;4.37;;;;;;;-1.08;81.32;94545.41;6081040;23;20489;-72
2021/01/01 08:21:08;;;;;;;5.97;5.43;;;;;;;-1.01;80.77;94549.84;6079620;23;20433;-72
2021/01/01 08:23:45;;;;;;;5.37;4.93;;;;;;;-0.98;80.93;94536.66;6081551;23;20445;-72
2021/01/01 08:26:13;;;;;;;7.83;6.13;;;;;;;-0.96;81.39;94552.84;6081864;23;20449;-70
2021/01/01 08:28:41;;;;;;;7.57;5.37;;;;;;;-0.95;81.77;94559.66;6078108;23;20828;-72
2021/01/01 08:31:12;;;;;;;4.83;4.43;;;;;;;-0.87;82.16;94562.38;6081162;23;20434;-72
2021/01/01 08:33:42;;;;;;;6.13;5.60;;;;;;;-0.82;82.20;94561.13;6081684;23;20493;-72
2021/01/01 08:36:11;;;;;;;6.23;5.50;;;;;;;-0.72;82.30;94567.09;6080741;23;20449;-72
2021/01/01 08:38:42;;;;;;;7.87;5.57;;;;;;;-0.63;82.45;94563.66;6081634;23;20440;-72
2021/01/01 08:41:16;;;;;;;7.50;5.90;;;;;;;-0.48;80.86;94572.56;6078922;23;20517;-72
2021/01/01 08:43:44;;;;;;;8.37;6.73;;;;;;;-0.36;79.71;94560.25;6069403;23;20432;-71
2021/01/01 08:46:15;;;;;;;6.37;5.83;;;;;;;-0.03;79.40;94570.00;6080940;23;20522;-72
2021/01/01 08:48:42;;;;;;;6.17;4.93;;;;;;;0.93;77.36;94553.81;6079984;23;20463;-71
2021/01/01 08:51:10;;;;;;;6.53;5.93;;;;;;;1.91;73.58;94558.50;6080261;23;20461;-73
2021/01/01 08:53:40;;;;;;;6.10;5.23;;;;;;;2.52;70.93;94570.34;6077744;23;20206;-71
2021/01/01 08:56:09;;;;;;;5.03;4.63;;;;;;;2.88;68.20;94575.25;6081964;23;20268;-72
2021/01/01 08:58:36;;;;;;;5.70;4.93;;;;;;;3.31;66.81;94581.88;6079335;23;20215;-72
2021/01/01 09:01:25;;;;;;;4.97;4.00;;;;;;;3.55;64.81;94573.19;6072377;23;20210;-72
2021/01/01 09:04:02;;;;;;;5.07;4.77;;;;;;;3.89;64.24;94574.69;6080361;23;20203;-72
2021/01/01 09:06:29;;;;;;;5.90;5.30;;;;;;;4.22;62.55;94586.63;6078263;23;20209;-72
2021/01/01 09:09:06;;;;;;;5.30;4.80;;;;;;;4.88;60.50;94587.03;6077773;23;20280;-73
2021/01/01 09:11:34;;;;;;;7.43;5.87;;;;;;;5.27;58.81;94580.81;6097956;23;20208;-72
2021/01/01 09:14:03;;;;;;;8.60;5.63;;;;;;;5.58;58.45;94589.34;6078329;23;20257;-72
2021/01/01 09:16:46;;;;;;;6.63;6.10;;;;;;;5.72;57.63;94590.34;6080124;23;20209;-72
2021/01/01 09:19:14;;;;;;;6.23;5.40;;;;;;;5.81;57.66;94591.88;6076152;23;20221;-71
2021/01/01 09:21:41;;;;;;;5.43;4.90;;;;;;;6.19;56.87;94597.03;6080946;23;20276;-72
2021/01/01 09:24:09;;;;;;;3.73;3.37;;;;;;;6.38;56.58;94591.19;6079209;23;20210;-72
2021/01/01 09:26:36;;;;;;;5.77;5.20;;;;;;;6.44;56.46;94600.94;6076921;23;20281;-72
2021/01/01 09:29:04;;;;;;;5.70;4.47;;;;;;;5.80;58.02;94597.28;6077384;23;20305;-72
2021/01/01 09:31:32;;;;;;;6.80;5.73;;;;;;;5.45;60.41;94598.78;6078372;23;20194;-72
2021/01/01 09:34:05;;;;;;;3.83;3.33;;;;;;;5.48;61.59;94594.00;6076240;23;20689;-72
2021/01/01 09:36:33;;;;;;;3.03;2.83;;;;;;;5.65;61.55;94585.00;6079322;23;20258;-72
2021/01/01 09:39:00;;;;;;;3.07;2.67;;;;;;;5.80;60.99;94592.88;6079504;23;20201;-72
2021/01/01 09:41:28;;;;;;;3.43;3.17;;;;;;;6.21;59.71;94589.78;6076634;23;20202;-72
2021/01/01 09:43:55;;;;;;;3.80;3.30;;;;;;;6.93;57.38;94595.00;6074673;23;20194;-72
2021/01/01 09:46:24;;;;;;;3.50;3.20;;;;;;;6.80;57.92;94594.88;6079535;23;20269;-72
2021/01/01 09:48:50;;;;;;;4.07;3.37;;;;;;;6.63;58.85;94612.66;6075371;23;20278;-72
2021/01/01 09:51:19;;;;;;;3.90;3.60;;;;;;;6.55;59.25;94602.28;6100037;23;20211;-72
2021/01/01 09:53:47;;;;;;;4.87;4.47;;;;;;;6.28;59.20;94607.22;6078845;23;20416;-72
2021/01/01 09:56:14;;;;;;;3.90;3.60;;;;;;;5.91;59.68;94605.53;6078470;23;20321;-72
2021/01/01 09:58:41;;;;;;;2.93;2.73;;;;;;;5.60;60.90;94603.06;6074656;23;20213;-72
2021/01/01 10:01:08;;;;;;;5.70;3.77;;;;;;;5.22;61.90;94601.47;6077421;23;20698;-71
2021/01/01 10:03:35;;;;;;;4.47;4.17;;;;;;;4.74;63.73;94600.84;6080100;23;20218;-71
2021/01/01 10:06:02;;;;;;;4.23;3.87;;;;;;;4.37;66.16;94604.97;6077865;23;20213;-71
2021/01/01 10:08:31;;;;;;;3.77;3.37;;;;;;;4.21;67.12;94598.06;6079065;23;20208;-72
2021/01/01 10:10:58;;;;;;;3.80;3.50;;;;;;;4.16;67.55;94610.81;6075995;23;20832;-72
2021/01/01 10:13:25;;;;;;;3.77;3.47;;;;;;;4.15;67.25;94605.75;6077657;23;20207;-71
2021/01/01 10:15:52;;;;;;;4.13;3.73;;;;;;;4.06;68.00;94604.97;6076395;23;20269;-72
2021/01/01 10:18:19;;;;;;;5.33;4.30;;;;;;;3.99;68.04;94604.03;6077721;23;20257;-71
2021/01/01 10:20:48;;;;;;;3.53;3.33;;;;;;;3.99;69.38;94597.00;6075734;23;20854;-72
2021/01/01 10:23:15;;;;;;;3.77;3.47;;;;;;;4.06;69.02;94601.56;6077585;23;20215;-71
2021/01/01 10:25:43;;;;;;;3.73;3.30;;;;;;;4.06;69.45;94594.53;6079988;23;20211;-71
2021/01/01 10:28:10;;;;;;;3.80;3.60;;;;;;;3.97;69.31;94608.59;6076034;23;20353;-72
2021/01/01 10:30:37;;;;;;;4.97;4.60;;;;;;;3.90;70.23;94605.84;6077696;23;20206;-71
2021/01/01 10:33:04;;;;;;;4.43;4.13;;;;;;;3.81;70.57;94608.66;6078931;23;20194;-71
2021/01/01 10:35:31;;;;;;;3.33;3.03;;;;;;;3.67;71.08;94608.38;6077233;23;20665;-71
2021/01/01 10:37:58;;;;;;;4.23;3.93;;;;;;;3.50;71.79;94612.00;6079002;23;20208;-71
2021/01/01 10:40:25;;;;;;;5.37;3.90;;;;;;;3.45;71.88;94609.06;6079332;23;20573;-71
2021/01/01 10:42:53;;;;;;;3.83;3.43;;;;;;;3.37;72.67;94607.28;6078910;23;20323;-70
2021/01/01 10:45:39;;;;;;;4.70;4.30;;;;;;;3.32;72.78;94608.78;6078506;23;20206;-71
2021/01/01 10:48:07;;;;;;;4.83;4.33;;;;;;;3.25;72.45;94610.41;6078096;23;20198;-71
2021/01/01 10:50:34;;;;;;;4.30;3.90;;;;;;;3.22;73.55;94608.13;6078858;23;20207;-71
2021/01/01 10:53:01;;;;;;;2.80;2.60;;;;;;;3.20;73.71;94623.09;6079964;23;20197;-71
2021/01/01 10:55:31;;;;;;;3.07;2.87;;;;;;;3.14;74.22;94617.59;6078409;23;20209;-71
2021/01/01 10:57:59;;;;;;;3.83;3.53;;;;;;;3.14;74.18;94617.59;6077693;23;20221;-73
2021/01/01 11:00:26;;;;;;;3.47;3.17;;;;;;;3.12;74.00;94616.94;6075599;23;20203;-71
2021/01/01 11:02:53;;;;;;;3.70;3.40;;;;;;;3.11;74.30;94617.13;6077974;23;20572;-71
2021/01/01 11:05:20;;;;;;;3.60;3.30;;;;;;;3.14;74.77;94614.97;6078873;23;20201;-71
2021/01/01 11:07:47;;;;;;;5.67;5.27;;;;;;;3.17;73.67;94610.41;6079979;23;20202;-71
2021/01/01 11:10:14;;;;;;;6.67;5.50;;;;;;;3.21;73.71;94609.94;6075186;23;20417;-71
2021/01/01 11:12:41;;;;;;;6.30;5.27;;;;;;;3.22;73.30;94608.13;6079959;23;20236;-71
2021/01/01 12:22:11;;;;;;;5.30;4.77;;;;;;;2.78;76.57;94566.78;5971656;23;20201;-71
2021/01/01 12:24:48;;;;;;;5.23;4.83;;;;;;;2.78;77.12;94569.41;6078084;23;20200;-71
2021/01/01 12:27:16;;;;;;;3.57;3.27;;;;;;;2.75;76.45;94564.53;6079181;23;20213;-71
2021/01/01 12:29:44;;;;;;;4.67;3.90;;;;;;;2.76;76.37;94560.94;6078835;23;20552;-71
2021/01/01 12:32:14;;;;;;;6.70;6.13;;;;;;;2.73;77.35;94571.66;6078279;23;20205;-71
2021/01/01 12:34:41;;;;;;;4.63;4.27;;;;;;;2.72;77.26;94564.81;6079151;23;20197;-71
2021/01/01 12:37:10;;;;;;;5.80;4.73;;;;;;;2.69;77.02;94572.97;6097711;23;20212;-71
2021/01/01 12:39:37;;;;;;;4.87;4.43;;;;;;;2.62;77.59;94559.78;6076767;23;20209;-71
2021/01/01 12:42:05;;;;;;;4.00;3.70;;;;;;;2.59;78.19;94559.28;6077390;23;20836;-72
2021/01/01 12:44:32;;;;;;;6.33;5.87;;;;;;;2.56;78.27;94561.25;6076266;23;20206;-71
2021/01/01 12:47:01;;;;;;;4.87;4.47;;;;;;;2.53;78.73;94560.75;6072976;23;20204;-71